KGSB/GSB METAR and TAF weather

Enter ICAO airport designator
Station Type Date Time Source
KGSB METAR 2021/05/12 01:56 UTC NOAA

KGSB 120156Z AUTO 15004KT 10SM CLR 16/13 A3009 RMK AO2 SLP192 T01640125 $


Station Type Date Time Source
KGSB Decoded METAR 2021/05/12 01:56 UTC NOAA

Seymour-Johnson Air Force Base, NC, United States (KGSB) 35-20N 077-58W
May 11, 2021 - 09:56 PM EDT / 2021.05.12 0156 UTC
Wind: from the SSE (150 degrees) at 5 MPH (4 KT):0
Visibility: 10 mile(s):0
Sky conditions: clear
Temperature: 61.5 F (16.4 C)
Dew Point: 54.5 F (12.5 C)
Relative Humidity: 77%
Pressure (altimeter): 30.09 in. Hg (1018 hPa)
ob: KGSB 120156Z AUTO 15004KT 10SM CLR 16/13 A3009 RMK AO2 SLP192 T01640125
cycle: 2

Station Type Date Time Source
KGSB TAF 2021/05/11 20:09 UTC NOAA

TAF TAF KGSB 112000Z 1120/1302 07007KT 9999 SCT045 BKN070 QNH3004INS
BECMG 1211/1212 03015G26KT 9999 BKN050 QNH3020INS
BECMG 1215/1216 04012G18KT 8000 -RA BKN040 OVC080 QNH3021INS
BECMG 1222/1223 05006KT 9999 NSW BKN080 QNH3021INS TX22/1120Z TN12/1220Z

Example: see airport list